NEODyS-2

Near Earth Objects - Dynamic Site
NEODyS ∴ Observatories ∴ Site 691 ∴ Obs & residuals
Contact »
691  ▹ 
OBSERVATIONS AND RESIDUALS

691-Steward Observatory, Kitt Peak-Spacewatch

Detections | Residuals | Detections & Residuals

[1-200] [201-400] [401-600] [601-800] [801-1000] [1001-1200] [1201-1400] [1401-1600] [1601-1800] [1801-2000] [2001-2200] [2201-2400] [2401-2600] [2601-2800] [2801-3000] [3001-3200] [3201-3400] [3401-3600] [3601-3800] [3801-4000] [4001-4200] [4201-4400] [4401-4600] [4601-4800] [4801-5000] [5001-5200] [5201-5400] [5401-5600] [5601-5800] [5801-6000] [6001-6200] [6201-6400] [6401-6600] [6601-6800] [6801-7000] [7001-7200] [7201-7400] [7401-7600] [7601-7800] [7801-8000] [8001-8200] [8201-8400] [8401-8600] [8601-8800] [8801-9000] [9001-9200] [9201-9400] [9401-9600] [9601-9800] [9801-10000] [10001-10200] [10201-10400] [10401-10600] [10601-10800] [10801-11000] [11001-11200] [11201-11400] [11401-11600] [11601-11800] [11801-12000] [12001-12200] [12201-12400] [12401-12600] [12601-12800] [12801-13000] [13001-13200] [13201-13400] [13401-13600] [13601-13800] [13801-14000] [14001-14200] [14201-14400] [14401-14600] [14601-14800] [14801-15000] [15001-15200] [15201-15400] [15401-15600] [15601-15800] [15801-16000] [16001-16200] [16201-16400] [16401-16600] [16601-16800] [16801-17000] [17001-17200] [17201-17400] [17401-17600] [17601-17800] [17801-18000] [18001-18200] [18201-18400] [18401-18600] [18601-18800] [18801-19000] [19001-19200] [19201-19400] [19401-19600] [19601-19800] [19801-20000] [20001-20200] [20201-20400] [20401-20600] [20601-20800] [20801-21000] [21001-21200] [21201-21400] [21401-21600] [21601-21800] [21801-22000] [22001-22200] [22201-22400] [22401-22600] [22601-22800] [22801-23000] [23001-23200] [23201-23400] [23401-23600] [23601-23800] [23801-24000] [24001-24200] [24201-24400] [24401-24600] [24601-24800] [24801-25000] [25001-25200] [25201-25400] [25401-25600] [25601-25800] [25801-26000] [26001-26200] [26201-26400] [26401-26600] [26601-26800] [26801-27000] [27001-27200] [27201-27400] [27401-27600] [27601-27800] [27801-28000] [28001-28200] [28201-28400] [28401-28600] [28601-28800] [28801-29000] [29001-29200] [29201-29400] [29401-29600] [29601-29800] [29801-30000] [30001-30200] [30201-30400] [30401-30600] [30601-30800] [30801-31000] [31001-31200] [31201-31400] [31401-31600] [31601-31800] [31801-32000] [32001-32200] [32201-32400] [32401-32600] [32601-32800] [32801-33000] [33001-33200] [33201-33400] [33401-33600] [33601-33800] [33801-34000] [34001-34200] [34201-34400] [34401-34600] [34601-34800] [34801-35000] [35001-35200] [35201-35400] [35401-35600] [35601-35800] [35801-36000] [36001-36200] [36201-36400] [36401-36600] [36601-36800] [36801-37000] [37001-37200] [37201-37400] [37401-37600] [37601-37800] [37801-38000] [38001-38200] [38201-38400] [38401-38600] [38601-38800] [38801-39000] [39001-39200] [39201-39400] [39401-39600] [39601-39800] [39801-40000] [40001-40200] [40201-40400] [40401-40600] [40601-40800] [40801-41000] [41001-41200] [41201-41400] [41401-41600] [41601-41800] [41801-42000] [42001-42200] [42201-42400] [42401-42600] [42601-42800] [42801-43000] [43001-43200] [43201-43400] [43401-43600] [43601-43800] [43801-44000] [44001-44200] [44201-44400] [44401-44600] [44601-44800] [44801-45000] [45001-45200] [45201-45400] [45401-45600] [45601-45800] [45801-46000] [46001-46200] [46201-46400] [46401-46600] [46601-46800] [46801-47000] [47001-47200] [47201-47400] [47401-47600] [47601-47800] [47801-48000] [48001-48200] [48201-48400] [48401-48600] [48601-48800] [48801-49000] [49001-49200] [49201-49400] [49401-49600] [49601-49800] [49801-50000] [50001-50200] [50201-50400] [50401-50600] [50601-50741]

Designation T Tech N Date Right Ascension Declination Apparent Magnitude Star Catalog Site code χ Used A Used M
yr-mo-day precision hr:min:sec precision rms F bias residual deg min sec precision rms F bias residual mag/col rms residual
2015OL35 O C H 2016-05-03.30659 1.000E-05 11:27:18.050 1.500E-01 0.500 F 0.267 0.165 +09° 33' 04.30" 1.000E-01 0.500 F 0.059 -0.005 o 691 0.33 Yes No
2015OL35 O C H 2016-05-03.32156 1.000E-05 11:27:18.250 1.500E-01 0.500 F 0.267 1.065 +09° 33' 00.90" 1.000E-01 0.500 F 0.059 -0.607 o 691 2.45 Yes No
2015OL35 O C H 2016-05-03.33535 1.000E-05 11:27:18.340 1.500E-01 0.500 F 0.267 0.463 +09° 32' 57.60" 1.000E-01 0.500 F 0.059 -1.324 o 691 2.81 Yes No
2016GN221 O C H 2016-05-03.39573 1.000E-05 14:54:15.550 1.500E-01 0.500 F 0.284 0.298 -24° 02' 41.70" 1.000E-01 0.500 F 0.227 -0.520 o 691 1.20 Yes No
2016GN221 O C H 2016-05-03.40317 1.000E-05 14:54:15.970 1.500E-01 0.500 F 0.284 0.048 -24° 02' 31.50" 1.000E-01 0.500 F 0.227 -0.215 19.7 V 0.70 0.46 o 691 0.44 Yes Yes
2016GN221 O C H 2016-05-03.41060 1.000E-05 14:54:16.410 1.500E-01 0.500 F 0.284 0.053 -24° 02' 21.30" 1.000E-01 0.500 F 0.227 0.081 19.6 V 0.70 0.36 o 691 0.20 Yes Yes
2016HF19 O C H 2016-05-03.42109 1.000E-05 14:21:40.150 1.500E-01 0.500 F 0.139 0.125 -07° 56' 17.70" 1.000E-01 0.500 F -0.005 -0.847 o 691 1.72 Yes No
2016HF19 O C H 2016-05-03.43005 1.000E-05 14:21:35.670 1.500E-01 0.500 F 0.139 1.304 -07° 55' 48.80" 1.000E-01 0.500 F -0.005 -1.468 o 691 3.91 No No
2016HF19 O C H 2016-05-03.43907 1.000E-05 14:21:31.120 1.500E-01 0.500 F 0.139 1.438 -07° 55' 18.80" 1.000E-01 0.500 F -0.005 -1.231 o 691 3.77 No No
2016HK19 O C H 2016-05-03.46178 1.000E-05 15:48:04.300 1.500E-01 0.500 F 0.145 -0.455 +22° 20' 14.60" 1.000E-01 0.500 F 0.257 -0.395 20.6 V 0.70 -0.16 o 691 1.21 Yes Yes
2016HK19 O C H 2016-05-03.47265 1.000E-05 15:48:04.480 1.500E-01 0.500 F 0.145 0.189 +22° 19' 43.80" 1.000E-01 0.500 F 0.257 0.221 20.8 V 0.70 0.04 o 691 0.59 Yes Yes
2014JY24 O C 2016-05-03.47731 1.000E-05 15:45:05.650 1.500E-01 0.500 F -0.098 -0.150 +02° 18' 16.90" 1.000E-01 0.500 F 0.236 0.149 19.3 V 0.70 0.28 o 691 0.42 Yes Yes
2014JY24 O C 2016-05-03.48616 1.000E-05 15:45:03.810 1.500E-01 0.500 F -0.098 -0.206 +02° 18' 05.20" 1.000E-01 0.500 F 0.236 -0.106 19.1 V 0.70 0.08 o 691 0.46 Yes Yes
2014JY24 O C 2016-05-03.49489 1.000E-05 15:45:02.000 1.500E-01 0.500 F -0.098 -0.222 +02° 17' 54.00" 1.000E-01 0.500 F 0.236 -0.015 19.5 V 0.70 0.48 o 691 0.45 Yes Yes
2016FW14 O C H 2016-05-04.17928 1.000E-05 10:11:59.030 1.500E-01 0.500 F 0.050 -0.206 -20° 23' 47.60" 1.000E-01 0.500 F -0.005 0.077 21.3 V 0.70 -0.01 o 691 0.45 Yes Yes
2007EP88 O C H 2016-05-04.18295 1.000E-05 08:27:53.710 1.500E-01 0.500 F -0.052 -0.384 +02° 25' 23.70" 1.000E-01 0.500 F 0.210 -1.003 o 691 2.16 Yes No
2016FW14 O C H 2016-05-04.18944 1.000E-05 10:11:57.830 1.500E-01 0.500 F 0.050 -0.424 -20° 23' 45.40" 1.000E-01 0.500 F -0.005 0.275 21.1 V 0.70 -0.21 o 691 1.02 Yes Yes
2007EP88 O C H 2016-05-04.19306 1.000E-05 08:27:55.380 1.500E-01 0.500 F -0.052 0.389 +02° 25' 21.60" 1.000E-01 0.500 F 0.210 -0.903 20.8 V 0.70 0.06 o 691 1.98 Yes Yes
2016FW14 O C H 2016-05-04.19941 1.000E-05 10:11:56.720 1.500E-01 0.500 F 0.050 0.275 -20° 23' 43.70" 1.000E-01 0.500 F -0.005 -0.011 o 691 0.57 Yes No
2007EP88 O C H 2016-05-04.20340 1.000E-05 08:27:56.970 1.500E-01 0.500 F -0.052 -0.609 +02° 25' 19.90" 1.000E-01 0.500 F 0.210 -0.352 20.4 V 0.70 -0.34 o 691 1.41 Yes Yes
2016HC3 O C H 2016-05-04.23179 1.000E-05 12:24:26.090 1.500E-01 0.500 F 0.381 -0.426 -28° 06' 51.20" 1.000E-01 0.500 F 0.297 -0.144 20.8 V 0.70 -0.01 o 691 0.90 Yes Yes
2016HC3 O C H 2016-05-04.23658 1.000E-05 12:24:25.540 1.500E-01 0.500 F 0.381 0.373 -28° 06' 48.00" 1.000E-01 0.500 F 0.297 -0.034 20.6 V 0.70 -0.21 o 691 0.75 Yes Yes
2016HC3 O C H 2016-05-04.24139 1.000E-05 12:24:24.910 1.500E-01 0.500 F 0.381 0.145 -28° 06' 44.70" 1.000E-01 0.500 F 0.297 0.158 21.0 V 0.70 0.19 o 691 0.43 Yes Yes
2008XO2 O C H 2016-05-04.26192 1.000E-05 10:04:19.250 1.500E-01 0.500 F 0.181 -0.086 +19° 41' 35.20" 1.000E-01 0.500 F 0.246 -0.057 20.2 V 0.70 0.11 o 691 0.21 Yes Yes
2016HJ19 O C H 2016-05-04.26450 1.000E-05 11:43:28.500 1.500E-01 0.500 F 0.108 -1.113 +24° 16' 20.10" 1.000E-01 0.500 F 0.239 -2.290 o 691 5.06 No No
2008XO2 O C H 2016-05-04.26713 1.000E-05 10:04:19.690 1.500E-01 0.500 F 0.181 0.098 +19° 41' 25.40" 1.000E-01 0.500 F 0.246 -0.192 20.0 V 0.70 -0.09 o 691 0.43 Yes Yes
2016HJ19 O C H 2016-05-04.26971 1.000E-05 11:43:27.660 1.500E-01 0.500 F 0.108 -0.137 +24° 15' 54.40" 1.000E-01 0.500 F 0.239 -0.864 o 691 1.76 Yes No
2008XO2 O C H 2016-05-04.27240 1.000E-05 10:04:20.130 1.500E-01 0.500 F 0.181 0.199 +19° 41' 15.70" 1.000E-01 0.500 F 0.246 -0.112 20.1 V 0.70 0.01 o 691 0.46 Yes Yes
2016HJ19 O C H 2016-05-04.27497 1.000E-05 11:43:26.780 1.500E-01 0.500 F 0.108 0.395 +24° 15' 27.60" 1.000E-01 0.500 F 0.239 -0.274 o 691 0.97 Yes No
2016HG19 O C H 2016-05-04.32077 1.000E-05 13:49:29.560 1.500E-01 0.500 F 0.202 -0.301 -18° 54' 33.00" 1.000E-01 0.500 F -0.143 -0.155 20.5 V 0.70 -0.06 o 691 0.69 Yes Yes
2009HY67 O C H 2016-05-04.32268 1.000E-05 13:55:08.790 1.500E-01 0.500 F 0.299 0.475 -13° 42' 59.60" 1.000E-01 0.500 F 0.196 1.080 o 691 2.39 Yes No
2016HG19 O C H 2016-05-04.32458 1.000E-05 13:49:27.810 1.500E-01 0.500 F 0.202 -2.191 -18° 54' 53.70" 1.000E-01 0.500 F -0.143 -0.350 20.4 V 0.70 -0.16 o 691 4.38 No Yes
2009HY67 O C H 2016-05-04.32648 1.000E-05 13:55:08.830 1.500E-01 0.500 F 0.299 -0.058 -13° 42' 31.40" 1.000E-01 0.500 F 0.196 -0.780 o 691 1.59 Yes No
2009HY67 O C H 2016-05-04.33030 1.000E-05 13:55:08.930 1.500E-01 0.500 F 0.299 0.273 -13° 42' 02.90" 1.000E-01 0.500 F 0.196 -2.495 o 691 4.94 No No
2016GN221 O C 2016-05-04.34086 1.000E-05 14:55:21.200 1.500E-01 0.500 F 0.284 -0.170 -23° 41' 47.60" 1.000E-01 0.500 F 0.227 0.051 19.5 V 0.70 0.32 o 691 0.36 Yes Yes
2016GN221 O C 2016-05-04.34661 1.000E-05 14:55:21.530 1.500E-01 0.500 F 0.284 -0.286 -23° 41' 39.80" 1.000E-01 0.500 F 0.227 -0.011 19.2 V 0.70 0.02 o 691 0.57 Yes Yes
2016GN221 O C 2016-05-04.35238 1.000E-05 14:55:21.880 1.500E-01 0.500 F 0.284 -0.150 -23° 41' 32.00" 1.000E-01 0.500 F 0.227 -0.114 19.3 V 0.70 0.12 o 691 0.38 Yes Yes
2016HE O C H 2016-05-04.35875 1.000E-05 15:09:45.480 1.500E-01 0.500 F 0.228 0.064 -20° 09' 28.80" 1.000E-01 0.500 F -0.171 0.076 o 691 0.21 Yes No
2016JA O C H 2016-05-04.36112 1.000E-05 14:23:04.340 1.500E-01 0.500 F 0.302 -0.687 -15° 28' 00.80" 1.000E-01 0.500 F 0.125 -0.761 o 691 2.06 Yes No
2016HE O C H 2016-05-04.36802 1.000E-05 15:09:45.020 1.500E-01 0.500 F 0.228 0.447 -20° 09' 52.50" 1.000E-01 0.500 F -0.171 -0.335 o 691 1.14 Yes No
2016JA O C H 2016-05-04.37039 1.000E-05 14:23:01.510 1.500E-01 0.500 F 0.302 1.036 -15° 27' 44.30" 1.000E-01 0.500 F 0.125 -0.433 o 691 2.26 Yes No
2016HE O C H 2016-05-04.37728 1.000E-05 15:09:44.520 1.500E-01 0.500 F 0.228 0.240 -20° 10' 16.10" 1.000E-01 0.500 F -0.171 -0.695 o 691 1.51 Yes No
2016JA O C H 2016-05-04.37965 1.000E-05 14:22:58.460 1.500E-01 0.500 F 0.302 -0.848 -15° 27' 27.40" 1.000E-01 0.500 F 0.125 0.197 o 691 1.75 Yes No
2016HP3 O C H 2016-05-04.39000 1.000E-05 13:56:32.880 1.500E-01 0.500 F 0.311 -0.899 +02° 54' 16.70" 1.000E-01 0.500 F 0.198 -0.532 20.5 V 0.70 -0.07 o 691 2.11 Yes Yes
2016HP3 O C H 2016-05-04.40169 1.000E-05 13:56:34.340 1.500E-01 0.500 F 0.311 -0.449 +02° 54' 50.50" 1.000E-01 0.500 F 0.198 0.492 20.8 V 0.70 0.23 o 691 1.34 Yes Yes
2016JP5 O C H 2016-05-04.40762 1.000E-05 12:05:09.390 1.500E-01 0.500 F 0.115 -0.192 +29° 23' 08.90" 1.000E-01 0.500 F 0.261 1.498 20.4 V 0.70 -0.18 o 691 3.08 Yes Yes
2016HP3 O C H 2016-05-04.41338 1.000E-05 13:56:35.840 1.500E-01 0.500 F 0.311 0.343 +02° 55' 23.40" 1.000E-01 0.500 F 0.198 0.601 o 691 1.39 Yes No
2016JP5 O C H 2016-05-04.41931 1.000E-05 12:05:07.320 1.500E-01 0.500 F 0.115 -0.102 +29° 25' 26.30" 1.000E-01 0.500 F 0.261 -1.249 20.7 V 0.70 0.11 o 691 2.61 Yes Yes
2016HK19 O C H 2016-05-04.44666 1.000E-05 15:48:25.580 1.500E-01 0.500 F 0.145 0.184 +21° 32' 02.60" 1.000E-01 0.500 F 0.257 0.008 20.7 V 0.70 0.00 o 691 0.37 Yes Yes
2002LJ3 O C 2016-05-04.44921 1.000E-05 14:31:39.780 1.500E-01 0.500 F 0.133 -0.194 +02° 52' 00.40" 1.000E-01 0.500 F 0.286 0.211 20.1 V 0.70 0.26 o 691 0.57 Yes Yes
2016HK19 O C H 2016-05-04.45409 1.000E-05 15:48:25.620 1.500E-01 0.500 F 0.145 -0.310 +21° 31' 40.50" 1.000E-01 0.500 F 0.257 0.730 o 691 1.60 Yes No
2002LJ3 O C 2016-05-04.45664 1.000E-05 14:31:39.050 1.500E-01 0.500 F 0.133 -0.041 +02° 52' 03.50" 1.000E-01 0.500 F 0.286 0.232 20.0 V 0.70 0.16 o 691 0.47 Yes Yes
2016HK19 O C H 2016-05-04.46153 1.000E-05 15:48:25.680 1.500E-01 0.500 F 0.123 -0.542 +21° 31' 17.10" 1.000E-01 0.500 F 0.241 0.229 20.8 V 0.70 0.10 o 691 1.18 Yes Yes
2002LJ3 O C 2016-05-04.46410 1.000E-05 14:31:38.280 1.500E-01 0.500 F 0.133 -0.460 +02° 52' 06.80" 1.000E-01 0.500 F 0.286 0.443 20.1 V 0.70 0.26 o 691 1.28 Yes Yes
2016JH17 O C 2016-05-04.46811 1.000E-05 16:59:04.710 1.500E-01 0.500 F 0.066 -0.111 +08° 57' 42.10" 1.000E-01 0.500 F 0.233 -0.317 20.9 V 0.70 -0.48 o 691 0.67 Yes Yes
2016HN2 O C H 2016-05-04.47312 1.000E-05 17:26:43.240 1.500E-01 0.500 F 0.143 -0.275 +09° 10' 33.70" 1.000E-01 0.500 F 0.182 -0.320 20.8 V 0.70 0.49 o 691 0.89 Yes Yes
2016JH17 O C 2016-05-04.47550 1.000E-05 16:59:04.120 1.500E-01 0.500 F 0.066 -0.776 +08° 57' 40.30" 1.000E-01 0.500 F 0.233 -0.128 20.8 V 0.70 -0.58 o 691 1.58 Yes Yes
2016HN2 O C H 2016-05-04.48051 1.000E-05 17:26:42.150 1.500E-01 0.500 F 0.143 0.883 +09° 09' 37.60" 1.000E-01 0.500 F 0.182 0.573 o 691 2.20 Yes No
2016JH17 O C 2016-05-04.48288 1.000E-05 16:59:03.590 1.500E-01 0.500 F 0.066 -0.571 +08° 57' 37.80" 1.000E-01 0.500 F 0.233 -0.637 21.2 V 0.70 -0.18 o 691 1.71 Yes Yes
Taranis O C 2016-05-05.21115 1.000E-05 13:48:30.490 1.500E-01 0.500 F 0.214 -0.395 +04° 42' 55.70" 1.000E-01 0.500 F 0.081 0.580 20.4 V 0.70 0.38 o 691 1.41 Yes Yes
2016JB6 O C H 2016-05-05.21115 1.000E-05 13:52:38.680 1.500E-01 0.500 F 0.166 -0.231 +04° 55' 57.90" 1.000E-01 0.500 F 0.187 -2.290 o 691 4.57 No No
Taranis O C 2016-05-05.21455 1.000E-05 13:48:30.300 1.500E-01 0.500 F 0.214 -0.587 +04° 42' 56.50" 1.000E-01 0.500 F 0.081 -0.031 20.1 V 0.70 0.08 o 691 1.18 Yes Yes
2016JB6 O C H 2016-05-05.21795 1.000E-05 13:52:38.100 1.500E-01 0.500 F 0.166 0.512 +04° 56' 00.50" 1.000E-01 0.500 F 0.187 -0.258 o 691 1.16 Yes No
Taranis O C 2016-05-05.21795 1.000E-05 13:48:30.120 1.500E-01 0.500 F 0.214 -0.629 +04° 42' 59.60" 1.000E-01 0.500 F 0.081 1.659 19.9 V 0.70 -0.12 o 691 3.54 No Yes
2016JP15 O C H 2016-05-05.27931 1.000E-05 15:25:09.890 1.500E-01 0.500 F 0.227 -0.386 +09° 52' 57.90" 1.000E-01 0.500 F 0.089 -0.280 20.9 V 0.70 0.38 o 691 0.97 Yes Yes
2016JL6 O C H 2016-05-05.29309 1.000E-05 15:55:54.140 1.500E-01 0.500 F 0.212 1.574 -11° 16' 49.50" 1.000E-01 0.500 F 0.228 -1.286 o 691 4.04 No No
2016JP15 O C H 2016-05-05.30649 1.000E-05 15:25:01.060 1.500E-01 0.500 F 0.227 -1.351 +09° 52' 44.80" 1.000E-01 0.500 F 0.089 1.181 20.9 V 0.70 0.38 o 691 3.54 No Yes
2016JL6 O C H 2016-05-05.32033 1.000E-05 15:56:00.190 1.500E-01 0.500 F 0.212 -0.124 -11° 16' 58.90" 1.000E-01 0.500 F 0.228 -2.220 o 691 4.42 No No
2016JP15 O C H 2016-05-05.33411 1.000E-05 15:24:52.180 1.500E-01 0.500 F 0.227 -0.781 +09° 52' 26.90" 1.000E-01 0.500 F 0.089 -1.761 o 691 3.81 No No
2016JL6 O C H 2016-05-05.34814 1.000E-05 15:56:06.450 1.500E-01 0.500 F 0.212 -0.471 -11° 17' 06.30" 1.000E-01 0.500 F 0.228 -1.216 o 691 2.62 Yes No
2014TF64 O C H 2016-05-08.34853 1.000E-05 14:51:33.650 1.500E-01 0.500 F 0.111 -0.207 +10° 24' 48.80" 1.000E-01 0.500 F 0.119 0.158 20.6 V 0.70 0.24 o 691 0.52 Yes Yes
2014TF64 O C H 2016-05-08.35626 1.000E-05 14:51:32.430 1.500E-01 0.500 F 0.111 -0.136 +10° 25' 31.60" 1.000E-01 0.500 F 0.119 0.124 20.7 V 0.70 0.34 o 691 0.37 Yes Yes
2014TF64 O C H 2016-05-08.36401 1.000E-05 14:51:31.210 1.500E-01 0.500 F 0.111 -0.029 +10° 26' 13.80" 1.000E-01 0.500 F 0.119 -0.614 20.5 V 0.70 0.14 o 691 1.24 Yes Yes
2010KP10 O C m 2016-05-09.16419 1.000E-05 11:23:56.580 1.500E-01 0.500 F 0.111 -0.650 -29° 07' 11.30" 1.000E-01 0.500 F 0.232 -0.045 20.1 V 0.70 0.37 o 691 1.36 Yes Yes
2010KP10 O C m 2016-05-09.17536 1.000E-05 11:24:05.430 1.500E-01 0.500 F 0.111 0.116 -29° 05' 06.90" 1.000E-01 0.500 F 0.232 -0.200 19.8 V 0.70 0.08 o 691 0.48 Yes Yes
2016JC18 O C m 2016-05-09.19552 1.000E-05 14:12:34.890 1.500E-01 0.500 F 0.231 -0.236 -15° 16' 34.10" 1.000E-01 0.500 F 0.042 0.134 19.6 V 0.70 -0.21 o 691 0.55 Yes Yes
2016JF18 O C m 2016-05-09.20725 1.000E-05 14:52:03.630 1.500E-01 0.500 F 0.263 0.326 -15° 07' 17.10" 1.000E-01 0.500 F 0.128 -0.020 o 691 0.67 Yes No
2016JC18 O C m 2016-05-09.20911 1.000E-05 14:12:25.580 1.500E-01 0.500 F 0.231 -0.077 -15° 18' 09.80" 1.000E-01 0.500 F 0.042 -0.008 19.8 V 0.70 -0.01 o 691 0.16 Yes Yes
2016JF18 O C m 2016-05-09.22051 1.000E-05 14:51:58.100 1.500E-01 0.500 F 0.263 -1.435 -15° 05' 52.10" 1.000E-01 0.500 F 0.128 -1.035 o 691 3.50 No No
2016JC18 O C m 2016-05-09.22237 1.000E-05 14:12:16.420 1.500E-01 0.500 F 0.231 -0.730 -15° 19' 43.50" 1.000E-01 0.500 F 0.042 -0.477 19.7 V 0.70 -0.11 o 691 1.77 Yes Yes
2016JF18 O C m 2016-05-09.23276 1.000E-05 14:51:53.190 1.500E-01 0.500 F 0.263 0.046 -15° 04' 31.50" 1.000E-01 0.500 F 0.128 -0.087 20.6 V 0.70 0.24 o 691 0.20 Yes Yes
2014JY24 O C H 2016-05-09.44553 1.000E-05 15:25:53.520 1.500E-01 0.500 F 0.119 0.064 +00° 10' 57.60" 1.000E-01 0.500 F 0.224 0.230 19.3 V 0.70 0.20 o 691 0.48 Yes Yes
2014JY24 O C H 2016-05-09.45280 1.000E-05 15:25:52.180 1.500E-01 0.500 F 0.119 0.169 +00° 10' 48.60" 1.000E-01 0.500 F 0.224 0.402 19.3 V 0.70 0.20 o 691 0.87 Yes Yes
2014JY24 O C H 2016-05-09.46112 1.000E-05 15:25:50.640 1.500E-01 0.500 F 0.119 0.164 +00° 10' 38.00" 1.000E-01 0.500 F 0.224 0.297 19.3 V 0.70 0.20 o 691 0.68 Yes Yes
2016HF3 O C H 2016-05-09.46458 1.000E-05 13:46:19.000 1.500E-01 0.500 F 0.164 -0.549 +18° 56' 23.80" 1.000E-01 0.500 F 0.267 0.524 19.8 V 0.70 0.05 o 691 1.52 Yes Yes
2016HF3 O C H 2016-05-09.46641 1.000E-05 13:46:19.900 1.500E-01 0.500 F 0.164 -0.434 +18° 56' 13.00" 1.000E-01 0.500 F 0.267 0.060 19.7 V 0.70 -0.05 o 691 0.88 Yes Yes
2016HF3 O C H 2016-05-09.46824 1.000E-05 13:46:20.840 1.500E-01 0.500 F 0.164 0.224 +18° 56' 02.80" 1.000E-01 0.500 F 0.267 0.201 19.5 V 0.70 -0.25 o 691 0.60 Yes Yes
2016HF3 O C 2016-05-10.14683 1.000E-05 13:52:41.070 1.500E-01 0.500 F 0.229 -0.075 +17° 51' 56.40" 1.000E-01 0.500 F 0.303 -0.014 19.3 V 0.70 -0.29 o 691 0.15 Yes Yes
2016HF3 O C 2016-05-10.15177 1.000E-05 13:52:43.540 1.500E-01 0.500 F 0.229 -0.338 +17° 51' 27.20" 1.000E-01 0.500 F 0.303 0.000 19.2 V 0.70 -0.39 o 691 0.68 Yes Yes
2016HS6 O C H 2016-05-10.15429 1.000E-05 14:05:58.410 1.500E-01 0.500 F 0.151 0.178 +16° 16' 18.60" 1.000E-01 0.500 F 0.303 0.113 21.1 V 0.70 0.08 o 691 0.42 Yes Yes
2016HF3 O C 2016-05-10.15674 1.000E-05 13:52:46.060 1.500E-01 0.500 F 0.229 -0.031 +17° 50' 58.20" 1.000E-01 0.500 F 0.303 0.462 19.2 V 0.70 -0.39 o 691 0.93 Yes Yes
2014TF64 O C H 2016-05-10.16238 1.000E-05 14:46:55.450 1.500E-01 0.500 F 0.067 -0.862 +13° 11' 37.30" 1.000E-01 0.500 F 0.246 1.218 21.1 V 0.70 0.68 o 691 2.99 Yes Yes
2016GF216 O C H 2016-05-10.16515 1.000E-05 15:43:33.220 1.500E-01 0.500 F -0.063 -0.717 +12° 31' 11.70" 1.000E-01 0.500 F 0.328 -0.155 20.7 V 0.70 0.72 o 691 1.48 Yes Yes
2016HK19 O C 2016-05-10.16771 1.000E-05 15:50:10.250 1.500E-01 0.500 F 0.054 -0.100 +15° 44' 59.10" 1.000E-01 0.500 F 0.287 0.311 20.1 V 0.70 -0.19 o 691 0.66 Yes Yes
2014TF64 O C H 2016-05-10.17055 1.000E-05 14:46:54.260 1.500E-01 0.500 F 0.067 0.821 +13° 12' 19.30" 1.000E-01 0.500 F 0.246 -1.680 20.5 V 0.70 0.08 o 691 3.73 No Yes
2016GF216 O C H 2016-05-10.17332 1.000E-05 15:43:35.220 1.500E-01 0.500 F -0.063 -0.187 +12° 30' 45.10" 1.000E-01 0.500 F 0.328 0.274 o 691 0.67 Yes No
2016HK19 O C 2016-05-10.17588 1.000E-05 15:50:10.270 1.500E-01 0.500 F 0.054 -0.727 +15° 44' 24.80" 1.000E-01 0.500 F 0.287 0.729 20.3 V 0.70 0.01 o 691 2.07 Yes Yes
2014TF64 O C H 2016-05-10.17872 1.000E-05 14:46:52.910 1.500E-01 0.500 F 0.067 0.197 +13° 13' 04.60" 1.000E-01 0.500 F 0.246 -1.268 o 691 2.58 Yes No
2016GF216 O C H 2016-05-10.18150 1.000E-05 15:43:37.190 1.500E-01 0.500 F -0.063 0.178 +12° 30' 17.90" 1.000E-01 0.500 F 0.328 0.191 20.5 V 0.70 0.52 o 691 0.52 Yes Yes
2016HK19 O C 2016-05-10.18407 1.000E-05 15:50:10.360 1.500E-01 0.500 F 0.054 -0.271 +15° 43' 49.10" 1.000E-01 0.500 F 0.287 -0.138 19.8 V 0.70 -0.49 o 691 0.61 Yes Yes
2016JJ17 O C H 2016-05-10.19192 1.000E-05 15:44:53.480 1.500E-01 0.500 F 0.139 -0.836 +20° 26' 13.50" 1.000E-01 0.500 F 0.233 -0.835 21.1 V 0.70 0.11 o 691 2.42 Yes Yes
2016JQ17 O C H 2016-05-10.19505 1.000E-05 15:05:58.460 1.500E-01 0.500 F 0.001 0.342 +21° 49' 44.90" 1.000E-01 0.500 F 0.328 0.325 o 691 0.95 Yes No
2016JJ17 O C H 2016-05-10.20112 1.000E-05 15:44:50.520 1.500E-01 0.500 F 0.139 -1.236 +20° 26' 01.90" 1.000E-01 0.500 F 0.233 0.322 21.6 V 0.70 0.61 o 691 2.60 Yes Yes
2016JQ17 O C H 2016-05-10.20380 1.000E-05 15:05:57.440 1.500E-01 0.500 F 0.001 -0.453 +21° 50' 04.60" 1.000E-01 0.500 F 0.328 0.809 21.2 V 0.70 0.57 o 691 1.86 Yes Yes
2016JJ17 O C H 2016-05-10.20990 1.000E-05 15:44:47.870 1.500E-01 0.500 F 0.139 0.929 +20° 25' 47.70" 1.000E-01 0.500 F 0.233 -1.667 o 691 3.78 No No
2016JQ17 O C H 2016-05-10.21453 1.000E-05 15:05:56.290 1.500E-01 0.500 F 0.001 -0.004 +21° 50' 26.80" 1.000E-01 0.500 F 0.328 -0.543 21.4 V 0.70 0.77 o 691 1.09 Yes Yes
2010CN1 O C H 2016-05-10.24674 1.000E-05 15:07:41.630 1.500E-01 0.500 F 0.029 0.357 -08° 48' 46.70" 1.000E-01 0.500 F 0.190 -1.756 o 691 3.58 No No
2016JV24 O C m 2016-05-10.25307 1.000E-05 15:14:09.320 1.500E-01 0.500 F 0.024 0.145 -06° 50' 02.60" 1.000E-01 0.500 F 0.278 -0.366 20.6 V 0.70 0.31 o 691 0.80 Yes Yes
2010CN1 O C H 2016-05-10.25575 1.000E-05 15:07:40.750 1.500E-01 0.500 F 0.029 -0.009 -08° 48' 36.50" 1.000E-01 0.500 F 0.190 -0.096 21.4 V 0.70 0.08 o 691 0.19 Yes Yes
2016JV24 O C m 2016-05-10.26214 1.000E-05 15:14:08.380 1.500E-01 0.500 F 0.024 -0.131 -06° 47' 40.40" 1.000E-01 0.500 F 0.278 -0.208 20.3 V 0.70 0.01 o 691 0.50 Yes Yes
2010CN1 O C H 2016-05-10.26484 1.000E-05 15:07:39.900 1.500E-01 0.500 F 0.029 0.189 -08° 48' 28.80" 1.000E-01 0.500 F 0.190 -1.015 21.4 V 0.70 0.08 o 691 2.07 Yes Yes
2016JM24 O C m 2016-05-10.27533 1.000E-05 14:49:10.340 1.500E-01 0.500 F 0.243 0.004 -14° 11' 39.80" 1.000E-01 0.500 F 0.101 -0.636 o 691 1.40 Yes No
2016JF18 O C 2016-05-10.27768 1.000E-05 14:44:45.030 1.500E-01 0.500 F 0.235 -0.283 -13° 03' 32.50" 1.000E-01 0.500 F 0.043 0.289 20.3 V 0.70 -0.08 o 691 0.83 Yes Yes
2016JM24 O C m 2016-05-10.28296 1.000E-05 14:49:08.290 1.500E-01 0.500 F 0.243 0.487 -14° 12' 01.60" 1.000E-01 0.500 F 0.101 -0.163 o 691 1.13 Yes No
2016JF18 O C 2016-05-10.28532 1.000E-05 14:44:41.580 1.500E-01 0.500 F 0.235 -0.321 -13° 02' 36.40" 1.000E-01 0.500 F 0.043 0.092 20.2 V 0.70 -0.18 o 691 0.68 Yes Yes
2016JM24 O C m 2016-05-10.29054 1.000E-05 14:49:06.210 1.500E-01 0.500 F 0.243 0.329 -14° 12' 23.40" 1.000E-01 0.500 F 0.101 0.139 21.0 V 0.70 -0.01 o 691 0.80 Yes Yes
2016JF18 O C 2016-05-10.29291 1.000E-05 14:44:38.130 1.500E-01 0.500 F 0.235 -0.650 -13° 01' 40.40" 1.000E-01 0.500 F 0.043 0.087 20.1 V 0.70 -0.28 o 691 1.34 Yes Yes
2016GN221 O C 2016-05-10.32884 1.000E-05 15:02:48.540 1.500E-01 0.500 F 0.261 -0.049 -21° 08' 36.80" 1.000E-01 0.500 F -0.110 -0.028 18.9 V 0.70 0.13 o 691 0.11 Yes Yes
2016HE O C H 2016-05-10.33487 1.000E-05 15:05:04.410 1.500E-01 0.500 F 0.212 -0.508 -24° 29' 18.40" 1.000E-01 0.500 F 0.211 -0.021 20.8 V 0.70 0.25 o 691 1.05 Yes Yes
2016GN221 O C 2016-05-10.33743 1.000E-05 15:02:49.130 1.500E-01 0.500 F 0.261 -0.071 -21° 08' 21.90" 1.000E-01 0.500 F -0.110 0.054 18.9 V 0.70 0.13 o 691 0.18 Yes Yes
2016HE O C H 2016-05-10.34345 1.000E-05 15:05:03.900 1.500E-01 0.500 F 0.301 -0.308 -24° 29' 40.70" 1.000E-01 0.500 F 0.218 0.487 20.5 V 0.70 -0.05 o 691 1.19 Yes Yes
2016GN221 O C 2016-05-10.34603 1.000E-05 15:02:49.730 1.500E-01 0.500 F 0.261 0.018 -21° 08' 07.10" 1.000E-01 0.500 F -0.110 -0.012 19.0 V 0.70 0.23 o 691 0.04 Yes Yes
2016HE O C H 2016-05-10.35213 1.000E-05 15:05:03.360 1.500E-01 0.500 F 0.301 -0.360 -24° 30' 03.60" 1.000E-01 0.500 F 0.218 0.639 20.5 V 0.70 -0.05 o 691 1.52 Yes Yes
2014JY24 O C H 2016-05-10.36205 1.000E-05 15:23:09.400 1.500E-01 0.500 F 0.119 -0.293 -00° 08' 14.90" 1.000E-01 0.500 F 0.224 0.197 19.5 V 0.70 0.37 o 691 0.71 Yes Yes
2014JY24 O C H 2016-05-10.37236 1.000E-05 15:23:07.560 1.500E-01 0.500 F 0.171 0.308 -00° 08' 29.20" 1.000E-01 0.500 F 0.298 -1.258 o 691 2.60 Yes No
2014JY24 O C H 2016-05-10.38270 1.000E-05 15:23:05.700 1.500E-01 0.500 F 0.171 0.715 -00° 08' 41.70" 1.000E-01 0.500 F 0.298 -0.804 o 691 2.16 Yes No
2009HY67 O C H 2016-05-10.38709 1.000E-05 13:58:11.460 1.500E-01 0.500 F 0.096 -0.326 -02° 45' 09.70" 1.000E-01 0.500 F 0.240 -0.317 21.1 V 0.70 0.10 o 691 1.09 Yes Yes
2016HP3 O C 2016-05-10.39039 1.000E-05 14:16:10.810 1.500E-01 0.500 F 0.235 -0.082 +08° 51' 54.80" 1.000E-01 0.500 F 0.277 0.246 20.2 V 0.70 0.10 o 691 0.53 Yes Yes
2009HY67 O C H 2016-05-10.39644 1.000E-05 13:58:11.700 1.500E-01 0.500 F 0.096 0.043 -02° 44' 17.80" 1.000E-01 0.500 F 0.240 2.508 20.8 V 0.70 -0.20 o 691 4.34 No Yes
2016HP3 O C 2016-05-10.39973 1.000E-05 14:16:13.090 1.500E-01 0.500 F 0.235 -0.437 +08° 52' 36.50" 1.000E-01 0.500 F 0.277 0.100 20.2 V 0.70 0.10 o 691 0.91 Yes Yes
2009HY67 O C H 2016-05-10.40575 1.000E-05 13:58:11.910 1.500E-01 0.500 F 0.096 -0.086 -02° 43' 31.30" 1.000E-01 0.500 F 0.240 0.172 20.8 V 0.70 -0.20 o 691 0.45 Yes Yes
2016HP3 O C 2016-05-10.40906 1.000E-05 14:16:15.420 1.500E-01 0.500 F 0.235 -0.251 +08° 53' 18.60" 1.000E-01 0.500 F 0.277 0.395 19.9 V 0.70 -0.20 o 691 0.95 Yes Yes
2002PO34 O C 2016-05-10.42355 1.000E-05 14:06:28.910 1.500E-01 0.500 F 0.248 -0.115 +06° 46' 29.00" 1.000E-01 0.500 F 0.163 -0.700 20.6 V 0.70 -0.27 o 691 1.42 Yes Yes
2002PO34 O C 2016-05-10.43283 1.000E-05 14:06:28.330 1.500E-01 0.500 F 0.248 -0.041 +06° 46' 31.10" 1.000E-01 0.500 F 0.163 0.275 20.8 V 0.70 -0.07 o 691 0.56 Yes Yes
2002PO34 O C 2016-05-10.44225 1.000E-05 14:06:27.730 1.500E-01 0.500 F 0.248 -0.152 +06° 46' 31.90" 1.000E-01 0.500 F 0.163 -0.065 20.4 V 0.70 -0.47 o 691 0.33 Yes Yes
2016JN17 O C H 2016-05-10.44662 1.000E-05 16:12:43.960 1.500E-01 0.500 F 0.120 0.527 +27° 18' 34.10" 1.000E-01 0.500 F 0.218 0.116 21.2 V 0.70 0.09 o 691 1.08 Yes Yes
2016JM17 O C H 2016-05-10.44987 1.000E-05 15:53:19.550 1.500E-01 0.500 F 0.106 0.433 +27° 59' 35.00" 1.000E-01 0.500 F 0.251 -1.466 o 691 3.10 Yes No
2016JN17 O C H 2016-05-10.45315 1.000E-05 16:12:43.100 1.500E-01 0.500 F 0.120 1.184 +27° 18' 28.80" 1.000E-01 0.500 F 0.218 -0.033 21.0 V 0.70 -0.11 o 691 2.38 Yes Yes
2016JM17 O C H 2016-05-10.45638 1.000E-05 15:53:18.830 1.500E-01 0.500 F 0.106 0.031 +27° 59' 52.50" 1.000E-01 0.500 F 0.251 -0.808 o 691 1.64 Yes No
2016JN17 O C H 2016-05-10.45958 1.000E-05 16:12:42.160 1.500E-01 0.500 F 0.120 0.576 +27° 18' 23.30" 1.000E-01 0.500 F 0.218 -0.448 21.1 V 0.70 0.00 o 691 1.46 Yes Yes
2016JM17 O C H 2016-05-10.46282 1.000E-05 15:53:18.170 1.500E-01 0.500 F 0.106 0.315 +28° 00' 09.50" 1.000E-01 0.500 F 0.251 -0.464 o 691 1.14 Yes No
2016HN2 O C H 2016-05-10.46827 1.000E-05 17:15:41.010 1.500E-01 0.500 F 0.068 0.503 -01° 10' 27.80" 1.000E-01 0.500 F 0.309 -0.632 o 691 1.66 Yes No
2016HN2 O C H 2016-05-10.47440 1.000E-05 17:15:40.230 1.500E-01 0.500 F 0.068 -0.049 -01° 10' 58.50" 1.000E-01 0.500 F 0.309 -0.864 o 691 1.79 Yes No
2016HN2 O C H 2016-05-10.48055 1.000E-05 17:15:39.480 1.500E-01 0.500 F 0.068 -0.164 -01° 11' 28.70" 1.000E-01 0.500 F 0.309 -0.513 o 691 1.11 Yes No
2016GU216 O C H 2016-05-11.13892 1.000E-05 07:45:59.510 1.500E-01 0.500 F -0.328 -0.224 -11° 29' 32.70" 1.000E-01 0.500 F 0.033 -0.003 20.7 V 0.70 0.68 o 691 0.45 Yes Yes
2011UU20 O C H 2016-05-11.14164 1.000E-05 08:41:49.090 1.500E-01 0.500 F -0.070 0.035 +16° 58' 38.10" 1.000E-01 0.500 F 0.147 -0.967 20.6 V 0.70 0.19 o 691 1.94 Yes Yes
2007EP88 O C H 2016-05-11.14421 1.000E-05 08:45:18.250 1.500E-01 0.500 F 0.057 0.363 +01° 59' 16.60" 1.000E-01 0.500 F 0.158 -0.198 o 691 0.83 Yes No
2016GU216 O C H 2016-05-11.14673 1.000E-05 07:45:59.550 1.500E-01 0.500 F -0.328 -0.172 -11° 29' 23.10" 1.000E-01 0.500 F 0.033 0.536 20.3 V 0.70 0.28 o 691 1.13 Yes Yes
2011UU20 O C H 2016-05-11.14945 1.000E-05 08:41:50.660 1.500E-01 0.500 F -0.070 -0.486 +16° 58' 22.10" 1.000E-01 0.500 F 0.147 -0.439 20.8 V 0.70 0.39 o 691 1.31 Yes Yes
2007EP88 O C H 2016-05-11.15202 1.000E-05 08:45:19.310 1.500E-01 0.500 F 0.057 0.194 +01° 59' 15.10" 1.000E-01 0.500 F 0.158 0.148 21.1 V 0.70 0.08 o 691 0.49 Yes Yes
2016GU216 O C H 2016-05-11.15454 1.000E-05 07:45:59.570 1.500E-01 0.500 F -0.328 -0.437 -11° 29' 15.00" 1.000E-01 0.500 F 0.033 -0.431 20.5 V 0.70 0.48 o 691 1.24 Yes Yes
2011UU20 O C H 2016-05-11.15723 1.000E-05 08:41:52.340 1.500E-01 0.500 F -0.070 0.651 +16° 58' 04.70" 1.000E-01 0.500 F 0.147 -1.372 o 691 3.06 Yes No
2007EP88 O C H 2016-05-11.15979 1.000E-05 08:45:20.310 1.500E-01 0.500 F 0.057 -0.801 +01° 59' 13.80" 1.000E-01 0.500 F 0.158 0.686 21.3 V 0.70 0.28 o 691 2.12 Yes Yes
2016GW221 O C H 2016-05-11.17024 1.000E-05 11:18:58.490 1.500E-01 0.500 F 0.153 1.734 -11° 20' 46.40" 1.000E-01 0.500 F 0.059 -0.840 o 691 3.77 No No
2016GW221 O C H 2016-05-11.17863 1.000E-05 11:18:55.230 1.500E-01 0.500 F 0.153 1.088 -11° 20' 36.40" 1.000E-01 0.500 F 0.059 -0.129 o 691 2.25 Yes No
2016GW221 O C H 2016-05-11.18700 1.000E-05 11:18:52.010 1.500E-01 0.500 F 0.153 0.814 -11° 20' 27.90" 1.000E-01 0.500 F 0.059 -0.954 20.9 V 0.70 -0.03 o 691 2.55 Yes Yes
2010KP10 O C H 2016-05-11.18968 1.000E-05 11:50:25.830 1.500E-01 0.500 F 0.262 0.694 -22° 47' 17.70" 1.000E-01 0.500 F 0.057 0.277 o 691 1.54 Yes No
2016HC3 O C H 2016-05-11.19159 1.000E-05 12:11:07.230 1.500E-01 0.500 F 0.415 -0.476 -26° 43' 03.70" 1.000E-01 0.500 F 0.284 -0.323 21.1 V 0.70 0.32 o 691 1.16 Yes Yes
2016GT220 O C H 2016-05-11.19403 1.000E-05 12:43:04.290 1.500E-01 0.500 F 0.402 -0.271 -28° 56' 25.00" 1.000E-01 0.500 F 0.117 0.480 o 691 1.11 Yes No
2016JM6 O C 2016-05-11.19658 1.000E-05 12:34:44.800 1.500E-01 0.500 F 0.378 -1.388 -10° 41' 11.90" 1.000E-01 0.500 F 0.189 -0.658 19.9 V 0.70 -0.48 o 691 3.09 Yes Yes
2010KP10 O C H 2016-05-11.19850 1.000E-05 11:50:31.980 1.500E-01 0.500 F 0.262 1.307 -22° 45' 37.30" 1.000E-01 0.500 F 0.057 1.019 o 691 3.22 No No
2016HC3 O C H 2016-05-11.20041 1.000E-05 12:11:06.300 1.500E-01 0.500 F 0.415 0.431 -26° 42' 57.10" 1.000E-01 0.500 F 0.284 -0.768 o 691 1.78 Yes No
2016GT220 O C H 2016-05-11.20298 1.000E-05 12:43:03.480 1.500E-01 0.500 F 0.402 -1.179 -28° 56' 22.50" 1.000E-01 0.500 F 0.117 -0.055 20.8 V 0.70 -0.22 o 691 2.37 Yes Yes
2016JM6 O C 2016-05-11.20553 1.000E-05 12:34:43.010 1.500E-01 0.500 F 0.378 -0.344 -10° 41' 25.10" 1.000E-01 0.500 F 0.189 -0.102 20.1 V 0.70 -0.28 o 691 0.72 Yes Yes
2010KP10 O C H 2016-05-11.20746 1.000E-05 11:50:38.160 1.500E-01 0.500 F 0.262 0.985 -22° 43' 57.20" 1.000E-01 0.500 F 0.057 -0.224 o 691 2.08 Yes No
2016HC3 O C H 2016-05-11.20936 1.000E-05 12:11:05.220 1.500E-01 0.500 F 0.415 -0.483 -26° 42' 48.80" 1.000E-01 0.500 F 0.284 0.364 20.7 V 0.70 -0.08 o 691 1.22 Yes Yes
2016GT220 O C H 2016-05-11.21181 1.000E-05 12:43:02.810 1.500E-01 0.500 F 0.402 -0.382 -28° 56' 19.90" 1.000E-01 0.500 F 0.117 -0.459 20.8 V 0.70 -0.22 o 691 1.20 Yes Yes
2016JM6 O C 2016-05-11.21437 1.000E-05 12:34:41.180 1.500E-01 0.500 F 0.378 -0.227 -10° 41' 38.80" 1.000E-01 0.500 F 0.189 -0.229 20.1 V 0.70 -0.28 o 691 0.65 Yes Yes
2016HJ19 O C H 2016-05-11.21777 1.000E-05 11:28:33.170 1.500E-01 0.500 F 0.262 -0.391 +15° 02' 52.80" 1.000E-01 0.500 F 0.275 0.153 21.3 V 0.70 0.28 o 691 0.84 Yes Yes
1994TW1 O C 2016-05-11.22006 1.000E-05 10:17:52.600 1.500E-01 0.500 F 0.100 -0.244 +15° 57' 21.00" 1.000E-01 0.500 F 0.201 -0.111 19.2 V 0.70 0.22 o 691 0.54 Yes Yes
2008XO2 O C 2016-05-11.22006 1.000E-05 10:15:17.000 1.500E-01 0.500 F 0.061 -0.497 +16° 02' 54.60" 1.000E-01 0.500 F 0.133 0.087 20.3 V 0.70 0.16 o 691 1.01 Yes Yes
2003KO2 O C 2016-05-11.22217 1.000E-05 11:06:38.170 1.500E-01 0.500 F 0.195 -0.112 +30° 29' 46.00" 1.000E-01 0.500 F 0.292 0.073 19.1 V 0.70 0.22 o 691 0.27 Yes Yes
1994TW1 O C 2016-05-11.22659 1.000E-05 10:17:52.850 1.500E-01 0.500 F 0.100 -0.067 +15° 57' 13.70" 1.000E-01 0.500 F 0.201 -0.068 19.2 V 0.70 0.22 o 691 0.19 Yes Yes
2008XO2 O C 2016-05-11.22659 1.000E-05 10:15:17.680 1.500E-01 0.500 F 0.061 0.091 +16° 02' 41.80" 1.000E-01 0.500 F 0.133 0.089 20.0 V 0.70 -0.14 o 691 0.26 Yes Yes
2003KO2 O C 2016-05-11.22863 1.000E-05 11:06:39.910 1.500E-01 0.500 F 0.195 -0.168 +30° 29' 49.70" 1.000E-01 0.500 F 0.292 0.092 19.4 V 0.70 0.52 o 691 0.38 Yes Yes
2016HJ19 O C H 2016-05-11.23074 1.000E-05 11:28:31.810 1.500E-01 0.500 F 0.262 -0.788 +15° 01' 56.60" 1.000E-01 0.500 F 0.275 0.614 21.2 V 0.70 0.18 o 691 2.01 Yes Yes
2008XO2 O C 2016-05-11.23304 1.000E-05 10:15:18.310 1.500E-01 0.500 F 0.061 0.052 +16° 02' 29.00" 1.000E-01 0.500 F 0.133 -0.061 19.8 V 0.70 -0.34 o 691 0.16 Yes Yes
1994TW1 O C 2016-05-11.23304 1.000E-05 10:17:53.070 1.500E-01 0.500 F 0.100 -0.286 +15° 57' 06.40" 1.000E-01 0.500 F 0.201 -0.114 19.3 V 0.70 0.32 o 691 0.62 Yes Yes
2003KO2 O C 2016-05-11.23508 1.000E-05 11:06:41.660 1.500E-01 0.500 F 0.195 -0.088 +30° 29' 53.20" 1.000E-01 0.500 F 0.292 -0.045 19.4 V 0.70 0.52 o 691 0.20 Yes Yes
2016JX28 O C H 2016-05-11.30043 1.000E-05 11:38:27.660 1.500E-01 0.500 F 0.182 -1.715 +05° 53' 07.50" 1.000E-01 0.500 F 0.309 1.116 19.6 V 0.70 -0.11 o 691 3.74 No Yes
2016JX28 O C H 2016-05-11.30694 1.000E-05 11:38:38.630 1.500E-01 0.500 F 0.182 0.090 +05° 51' 29.40" 1.000E-01 0.500 F 0.309 -0.065 19.8 V 0.70 0.09 o 691 0.25 Yes Yes
2016GN221 O C H 2016-05-11.31408 1.000E-05 15:04:08.980 1.500E-01 0.500 F 0.261 -0.077 -20° 40' 00.60" 1.000E-01 0.500 F -0.110 -0.077 19.2 V 0.70 0.48 o 691 0.22 Yes Yes
2016JF18 O C H 2016-05-11.31600 1.000E-05 14:36:57.830 1.500E-01 0.500 F 0.206 0.905 -10° 48' 10.80" 1.000E-01 0.500 F 0.077 0.579 20.4 V 0.70 0.01 o 691 2.22 Yes Yes
2016GN221 O C H 2016-05-11.32245 1.000E-05 15:04:09.570 1.500E-01 0.500 F 0.261 -0.105 -20° 39' 45.80" 1.000E-01 0.500 F -0.110 -0.156 19.1 V 0.70 0.38 o 691 0.38 Yes Yes
2016JF18 O C H 2016-05-11.32442 1.000E-05 14:36:53.670 1.500E-01 0.500 F 0.206 0.903 -10° 47' 01.30" 1.000E-01 0.500 F 0.077 0.106 20.7 V 0.70 0.31 o 691 1.90 Yes Yes
2016GN221 O C H 2016-05-11.33077 1.000E-05 15:04:10.170 1.500E-01 0.500 F 0.261 0.045 -20° 39' 31.00" 1.000E-01 0.500 F -0.110 -0.175 19.1 V 0.70 0.38 o 691 0.36 Yes Yes
2016JF18 O C H 2016-05-11.33276 1.000E-05 14:36:49.440 1.500E-01 0.500 F 0.206 -0.707 -10° 45' 51.20" 1.000E-01 0.500 F 0.077 0.803 20.4 V 0.70 0.01 o 691 2.25 Yes Yes
2016JB6 O C 2016-05-11.33778 1.000E-05 13:43:47.540 1.500E-01 0.500 F 0.274 -0.352 +04° 55' 10.20" 1.000E-01 0.500 F 0.034 0.310 21.1 V 0.70 -0.04 o 691 0.94 Yes Yes
Taranis O C 2016-05-11.33778 1.000E-05 13:43:27.760 1.500E-01 0.500 F 0.258 -0.125 +05° 22' 16.30" 1.000E-01 0.500 F 0.092 0.083 20.1 V 0.70 0.02 o 691 0.30 Yes Yes
2016JZ28 O C H 2016-05-11.34069 1.000E-05 14:25:38.960 1.500E-01 0.500 F 0.304 -0.282 +08° 05' 35.70" 1.000E-01 0.500 F 0.274 -0.914 o 691 1.96 Yes No
1999TX16 O C 2016-05-11.34069 1.000E-05 14:21:56.780 1.500E-01 0.500 F 0.273 -0.191 +08° 04' 29.00" 1.000E-01 0.500 F 0.302 -0.196 18.4 V 0.70 -0.09 o 691 0.55 Yes Yes
2016JV24 O C H 2016-05-11.34311 1.000E-05 15:12:37.490 1.500E-01 0.500 F 0.146 0.440 -01° 50' 39.50" 1.000E-01 0.500 F 0.109 -0.814 o 691 2.01 Yes No
2016JB6 O C 2016-05-11.34527 1.000E-05 13:43:46.870 1.500E-01 0.500 F 0.274 -0.312 +04° 55' 09.70" 1.000E-01 0.500 F 0.034 0.607 20.8 V 0.70 -0.34 o 691 1.37 Yes Yes
Taranis O C 2016-05-11.34527 1.000E-05 13:43:27.350 1.500E-01 0.500 F 0.258 -0.788 +05° 22' 19.30" 1.000E-01 0.500 F 0.092 0.432 20.1 V 0.70 0.02 o 691 1.80 Yes Yes
2016JZ28 O C H 2016-05-11.34822 1.000E-05 14:25:38.790 1.500E-01 0.500 F 0.304 0.031 +08° 05' 53.20" 1.000E-01 0.500 F 0.274 -2.464 o 691 4.82 No No
1999TX16 O C 2016-05-11.34822 1.000E-05 14:21:55.680 1.500E-01 0.500 F 0.273 -0.208 +08° 04' 22.60" 1.000E-01 0.500 F 0.302 -0.190 18.4 V 0.70 -0.09 o 691 0.56 Yes Yes
2016JV24 O C H 2016-05-11.35055 1.000E-05 15:12:36.700 1.500E-01 0.500 F 0.146 0.911 -01° 48' 32.00" 1.000E-01 0.500 F 0.109 -1.989 o 691 4.07 No No
2016JB6 O C 2016-05-11.35281 1.000E-05 13:43:46.240 1.500E-01 0.500 F 0.274 0.373 +04° 55' 08.20" 1.000E-01 0.500 F 0.034 -0.087 20.8 V 0.70 -0.34 o 691 0.77 Yes Yes
Taranis O C 2016-05-11.35281 1.000E-05 13:43:27.050 1.500E-01 0.500 F 0.258 0.224 +05° 22' 21.50" 1.000E-01 0.500 F 0.092 -0.036 20.0 V 0.70 -0.08 o 691 0.45 Yes Yes
2016JZ28 O C H 2016-05-11.35568 1.000E-05 14:25:38.620 1.500E-01 0.500 F 0.304 0.298 +08° 06' 14.40" 1.000E-01 0.500 F 0.274 -0.131 o 691 0.66 Yes No

[1-200] [201-400] [401-600] [601-800] [801-1000] [1001-1200] [1201-1400] [1401-1600] [1601-1800] [1801-2000] [2001-2200] [2201-2400] [2401-2600] [2601-2800] [2801-3000] [3001-3200] [3201-3400] [3401-3600] [3601-3800] [3801-4000] [4001-4200] [4201-4400] [4401-4600] [4601-4800] [4801-5000] [5001-5200] [5201-5400] [5401-5600] [5601-5800] [5801-6000] [6001-6200] [6201-6400] [6401-6600] [6601-6800] [6801-7000] [7001-7200] [7201-7400] [7401-7600] [7601-7800] [7801-8000] [8001-8200] [8201-8400] [8401-8600] [8601-8800] [8801-9000] [9001-9200] [9201-9400] [9401-9600] [9601-9800] [9801-10000] [10001-10200] [10201-10400] [10401-10600] [10601-10800] [10801-11000] [11001-11200] [11201-11400] [11401-11600] [11601-11800] [11801-12000] [12001-12200] [12201-12400] [12401-12600] [12601-12800] [12801-13000] [13001-13200] [13201-13400] [13401-13600] [13601-13800] [13801-14000] [14001-14200] [14201-14400] [14401-14600] [14601-14800] [14801-15000] [15001-15200] [15201-15400] [15401-15600] [15601-15800] [15801-16000] [16001-16200] [16201-16400] [16401-16600] [16601-16800] [16801-17000] [17001-17200] [17201-17400] [17401-17600] [17601-17800] [17801-18000] [18001-18200] [18201-18400] [18401-18600] [18601-18800] [18801-19000] [19001-19200] [19201-19400] [19401-19600] [19601-19800] [19801-20000] [20001-20200] [20201-20400] [20401-20600] [20601-20800] [20801-21000] [21001-21200] [21201-21400] [21401-21600] [21601-21800] [21801-22000] [22001-22200] [22201-22400] [22401-22600] [22601-22800] [22801-23000] [23001-23200] [23201-23400] [23401-23600] [23601-23800] [23801-24000] [24001-24200] [24201-24400] [24401-24600] [24601-24800] [24801-25000] [25001-25200] [25201-25400] [25401-25600] [25601-25800] [25801-26000] [26001-26200] [26201-26400] [26401-26600] [26601-26800] [26801-27000] [27001-27200] [27201-27400] [27401-27600] [27601-27800] [27801-28000] [28001-28200] [28201-28400] [28401-28600] [28601-28800] [28801-29000] [29001-29200] [29201-29400] [29401-29600] [29601-29800] [29801-30000] [30001-30200] [30201-30400] [30401-30600] [30601-30800] [30801-31000] [31001-31200] [31201-31400] [31401-31600] [31601-31800] [31801-32000] [32001-32200] [32201-32400] [32401-32600] [32601-32800] [32801-33000] [33001-33200] [33201-33400] [33401-33600] [33601-33800] [33801-34000] [34001-34200] [34201-34400] [34401-34600] [34601-34800] [34801-35000] [35001-35200] [35201-35400] [35401-35600] [35601-35800] [35801-36000] [36001-36200] [36201-36400] [36401-36600] [36601-36800] [36801-37000] [37001-37200] [37201-37400] [37401-37600] [37601-37800] [37801-38000] [38001-38200] [38201-38400] [38401-38600] [38601-38800] [38801-39000] [39001-39200] [39201-39400] [39401-39600] [39601-39800] [39801-40000] [40001-40200] [40201-40400] [40401-40600] [40601-40800] [40801-41000] [41001-41200] [41201-41400] [41401-41600] [41601-41800] [41801-42000] [42001-42200] [42201-42400] [42401-42600] [42601-42800] [42801-43000] [43001-43200] [43201-43400] [43401-43600] [43601-43800] [43801-44000] [44001-44200] [44201-44400] [44401-44600] [44601-44800] [44801-45000] [45001-45200] [45201-45400] [45401-45600] [45601-45800] [45801-46000] [46001-46200] [46201-46400] [46401-46600] [46601-46800] [46801-47000] [47001-47200] [47201-47400] [47401-47600] [47601-47800] [47801-48000] [48001-48200] [48201-48400] [48401-48600] [48601-48800] [48801-49000] [49001-49200] [49201-49400] [49401-49600] [49601-49800] [49801-50000] [50001-50200] [50201-50400] [50401-50600] [50601-50741]